Welcome to Northern Hawkes Bay. New Zealand.
PWS Header
      nz Flag



Hit Counter


W3C Valid W3C Valid logo


    Wairoa

Select any of the Stations below to visit their websites.










Historic Data from Weather Underground
Select the location of interest below. Wairoa is the default. Please have patience, this Data is slow to load in.
Northern Hawkes Bay Historical Data
Daily Summary for March 12, 2017 Units:  English    Metric   Both
« Previous Day
Next Day »
Daily Weekly Monthly Yearly Custom
  High: Low: Average:
Temperature: 73.9 °F 61 °F 66.9 °F
Dew Point: 67.8 °F 60.4 °F 63.9 °F
Humidity: 99% 74% 90%
Wind Speed: 13mph 0mph 3.4mph
Wind Gust: 15.9mph - -
Wind- - SSW
Pressure: 29.9 in 29.4 in -
Precipitation: 0 in    
Historical Graphs
 
 
Tabular Data for March 12, 2017
Time Temperature Dew Point Pressure Wind Wind Speed Wind Gust Humidity Rainfall Rate (Hourly) solar
00:04 68.2 °F 67.6 °F 29.4 in SW 7.6 mph 12.1 mph 98% 0.24 in 14 W/m2
00:09 68.2 °F 67.8 °F 29.4 in SW 6 mph 11.4 mph 99% 0.26 in 13 W/m2
00:14 68 °F 67.6 °F 29.5 in SW 4.5 mph 11.4 mph 99% 0.25 in 10 W/m2
00:19 67.6 °F 67.5 °F 29.5 in SW 6.9 mph 12.1 mph 99% 0.27 in 7 W/m2
00:24 67.5 °F 67.3 °F 29.5 in SW 6.9 mph 12.1 mph 99% 0.27 in 9 W/m2
00:29 67.3 °F 66.9 °F 29.4 in SSW 3.8 mph 11.4 mph 99% 0.27 in 11 W/m2
00:34 66.9 °F 66.7 °F 29.5 in SSW 5.4 mph 9.8 mph 99% 0.25 in 9 W/m2
00:39 66.9 °F 66.7 °F 29.5 in SSW 4.5 mph 7.6 mph 99% 0.24 in 6 W/m2
00:44 66.9 °F 66.7 °F 29.5 in SW 3.1 mph 7.6 mph 99% 0.22 in 3 W/m2
00:49 66.9 °F 66.7 °F 29.5 in SW 3.1 mph 6 mph 99% 0.22 in 2 W/m2
00:54 66.9 °F 66.7 °F 29.5 in WSW 1.6 mph 6 mph 99% 0.2 in 1 W/m2
00:59 67.3 °F 66.9 °F 29.5 in SW 2.2 mph 6 mph 99% 0.18 in 0 W/m2
01:04 67.6 °F 67.5 °F 29.5 in SW 3.8 mph 6.9 mph 99% 0.17 in 0 W/m2
01:09 67.6 °F 67.5 °F 29.5 in SW 7.6 mph 11.4 mph 99% 0.17 in 0 W/m2
01:14 67.1 °F 66.7 °F 29.5 in SW 6.9 mph 13.6 mph 99% 0.12 in 0 W/m2
01:19 66.7 °F 66.6 °F 29.5 in SW 4.5 mph 13.6 mph 99% 0.09 in 0 W/m2
01:24 66.4 °F 66 °F 29.5 in SW 8.3 mph 12.1 mph 99% 0.08 in 0 W/m2
01:29 66.4 °F 66 °F 29.5 in SW 6.9 mph 12.1 mph 99% 0.07 in 0 W/m2
01:34 66.2 °F 65.8 °F 29.5 in WSW 5.4 mph 13.6 mph 99% 0.07 in 0 W/m2
01:39 66 °F 65.8 °F 29.5 in WSW 6 mph 13.6 mph 99% 0.06 in 0 W/m2
01:44 66 °F 65.8 °F 29.5 in West 5.4 mph 13.6 mph 99% 0.06 in 0 W/m2
01:49 65.8 °F 65.7 °F 29.5 in WSW 1.6 mph 9.2 mph 99% 0.05 in 0 W/m2
01:54 65.8 °F 65.7 °F 29.5 in WSW 8.3 mph 9.8 mph 99% 0.04 in 0 W/m2
01:59 66 °F 65.8 °F 29.5 in West 0.7 mph 9.8 mph 99% 0.04 in 0 W/m2
03:04 66 °F 65.8 °F 29.5 in West 2.2 mph 8.3 mph 99% 0.02 in 0 W/m2
03:09 66 °F 65.8 °F 29.5 in WNW 1.6 mph 8.3 mph 99% 0.01 in 0 W/m2
03:14 66 °F 65.8 °F 29.5 in Calm   9.8 mph 99% 0.01 in 0 W/m2
03:19 66 °F 65.8 °F 29.6 in WSW 4.5 mph 9.8 mph 99% 0 in 0 W/m2
03:24 65.8 °F 65.7 °F 29.6 in West 6.9 mph 10.7 mph 99% 0 in 0 W/m2
03:29 65.7 °F 65.5 °F 29.6 in West 4.5 mph 10.7 mph 99% 0 in 0 W/m2
03:34 65.7 °F 65.5 °F 29.6 in WSW 3.1 mph 9.2 mph 99% 0 in 0 W/m2
03:39 65.5 °F 65.1 °F 29.6 in WSW 4.5 mph 8.3 mph 99% 0 in 0 W/m2
03:44 65.3 °F 64.9 °F 29.6 in WSW 5.4 mph 7.6 mph 99% 0 in 0 W/m2
03:49 65.1 °F 64.9 °F 29.6 in SW 11.4 mph 15.2 mph 99% 0 in 0 W/m2
03:54 64.9 °F 64.8 °F 29.6 in SW 8.3 mph 15.2 mph 99% 0 in 0 W/m2
03:59 64.8 °F 64.6 °F 29.6 in SW 3.8 mph 15.2 mph 99% 0 in 0 W/m2
04:04 64.6 °F 64.2 °F 29.6 in SW 6.9 mph 12.1 mph 99% 0 in 0 W/m2
04:09 63.9 °F 63 °F 29.6 in SW 7.6 mph 13 mph 97% 0 in 0 W/m2
04:14 64.4 °F 64 °F 29.6 in SW 6.9 mph 14.5 mph 99% 0 in 0 W/m2
04:19 64.2 °F 63.3 °F 29.6 in SW 6 mph 14.5 mph 97% 0 in 0 W/m2
04:24 64.2 °F 63.3 °F 29.6 in SSW 7.6 mph 14.5 mph 97% 0.01 in 0 W/m2
04:29 64.2 °F 63.3 °F 29.6 in SW 6 mph 12.1 mph 97% 0.01 in 0 W/m2
04:34 64.2 °F 63.3 °F 29.6 in SW 6.9 mph 11.4 mph 97% 0.01 in 0 W/m2
04:39 64.2 °F 63.3 °F 29.6 in SW 2.2 mph 9.8 mph 97% 0.01 in 0 W/m2
04:44 64.2 °F 63.3 °F 29.6 in SW 4.5 mph 9.8 mph 97% 0.01 in 0 W/m2
04:49 64.2 °F 63.3 °F 29.6 in WSW 1.6 mph 9.2 mph 97% 0.01 in 0 W/m2
04:54 64 °F 63.1 °F 29.6 in West 3.8 mph 9.2 mph 97% 0.01 in 0 W/m2
04:59 64 °F 63.1 °F 29.6 in West 5.4 mph 6.9 mph 97% 0.01 in 0 W/m2
05:04 64 °F 63.1 °F 29.6 in WSW 7.6 mph 9.8 mph 97% 0.01 in 0 W/m2
05:09 63.7 °F 62.8 °F 29.6 in WSW 3.8 mph 9.8 mph 97% 0.01 in 0 W/m2
05:14 63.5 °F 62.8 °F 29.6 in West 3.8 mph 9.8 mph 97% 0.01 in 0 W/m2
05:19 63.5 °F 62.8 °F 29.6 in WSW 3.1 mph 9.8 mph 97% 0.01 in 0 W/m2
05:24 63.5 °F 62.8 °F 29.6 in SW 6 mph 8.3 mph 97% 0 in 0 W/m2
05:29 63.7 °F 62.8 °F 29.6 in SW 1.6 mph 8.3 mph 97% 0 in 0 W/m2
05:34 63.5 °F 62.8 °F 29.6 in SW 13 mph 15.9 mph 97% 0 in 0 W/m2
05:39 63.3 °F 62.4 °F 29.6 in SW 3.8 mph 15.9 mph 97% 0 in 0 W/m2
05:44 63.5 °F 62.8 °F 29.6 in SW 6 mph 13 mph 97% 0 in 0 W/m2
05:49 63.5 °F 62.8 °F 29.6 in SSW 5.4 mph 9.8 mph 97% 0 in 0 W/m2
05:54 63.3 °F 62.4 °F 29.6 in SSW 6 mph 9.8 mph 97% 0 in 0 W/m2
05:59 63.3 °F 62.4 °F 29.7 in SW 6 mph 11.4 mph 97% 0 in 0 W/m2
06:04 63.1 °F 62.2 °F 29.7 in SSW 4.5 mph 11.4 mph 97% 0 in 0 W/m2
06:09 63.1 °F 62.2 °F 29.7 in SW 3.8 mph 10.7 mph 97% 0 in 0 W/m2
06:15 63.1 °F 62.1 °F 29.7 in SSW 5.4 mph 11.4 mph 96% 0 in 0 W/m2
06:20 63.1 °F 62.1 °F 29.7 in SSW 6 mph 11.4 mph 96% 0 in 0 W/m2
06:25 63.1 °F 62.1 °F 29.7 in SSW 4.5 mph 10.7 mph 96% 0 in 0 W/m2
06:30 63.3 °F 61.9 °F 29.7 in SW 5.4 mph 9.2 mph 95% 0 in 0 W/m2
06:35 63.1 °F 61.7 °F 29.7 in SSW 5.4 mph 8.3 mph 95% 0 in 0 W/m2
06:40 63.3 °F 61.9 °F 29.7 in South 4.5 mph 8.3 mph 95% 0 in 0 W/m2
06:45 63.3 °F 61.9 °F 29.7 in SSW 5.4 mph 7.6 mph 95% 0 in 0 W/m2
06:50 63.3 °F 61.9 °F 29.7 in SSW 2.2 mph 6.9 mph 95% 0 in 0 W/m2
06:55 63.3 °F 61.9 °F 29.7 in SSW 3.8 mph 6.9 mph 95% 0 in 0 W/m2
07:00 63.5 °F 62.1 °F 29.7 in SSW 3.1 mph 7.6 mph 95% 0 in 0 W/m2
07:06 63.5 °F 62.1 °F 29.7 in SSW 1.6 mph 7.6 mph 95% 0 in 0 W/m2
07:11 63.5 °F 62.1 °F 29.7 in Calm   4.5 mph 95% 0 in 0 W/m2
07:16 63.3 °F 61.9 °F 29.7 in Calm   0.7 mph 95% 0 in 0 W/m2
07:35 63.3 °F 61.9 °F 29.7 in Calm     95% 0 in 0 W/m2
07:40 63.3 °F 61.9 °F 29.7 in Calm     95% 0 in 0 W/m2
07:45 63.3 °F 62.2 °F 29.7 in Calm     96% 0 in 0 W/m2
07:50 63.3 °F 62.2 °F 29.7 in Calm     96% 0 in 0 W/m2
07:55 63.3 °F 62.2 °F 29.7 in Calm     96% 0 in 0 W/m2
08:00 63.3 °F 62.2 °F 29.7 in Calm     96% 0 in 0 W/m2
08:05 63.3 °F 62.2 °F 29.7 in Calm     96% 0 in 0 W/m2
08:10 63.3 °F 62.2 °F 29.7 in Calm     96% 0 in 0 W/m2
08:15 63.3 °F 62.2 °F 29.7 in Calm     96% 0 in 0 W/m2
08:20 63.3 °F 62.2 °F 29.7 in Calm     96% 0 in 0 W/m2
08:25 63.3 °F 62.2 °F 29.7 in Calm     96% 0 in 0 W/m2
08:30 63.3 °F 62.2 °F 29.7 in Calm     96% 0 in 0 W/m2
08:35 63.3 °F 62.4 °F 29.7 in Calm     97% 0 in 0 W/m2
08:40 63.3 °F 62.4 °F 29.7 in Calm     97% 0 in 0 W/m2
08:45 63.3 °F 62.4 °F 29.7 in Calm     97% 0 in 0 W/m2
08:50 63.3 °F 62.4 °F 29.7 in Calm     97% 0 in 0 W/m2
08:55 63.3 °F 62.4 °F 29.7 in Calm     97% 0 in 0 W/m2
09:00 63.1 °F 62.2 °F 29.7 in Calm     97% 0 in 0 W/m2
09:05 63.1 °F 62.2 °F 29.7 in Calm     97% 0 in 0 W/m2
09:10 63.1 °F 62.2 °F 29.7 in Calm     97% 0 in 0 W/m2
09:15 63.1 °F 62.2 °F 29.7 in Calm     97% 0 in 0 W/m2
09:20 63.1 °F 62.2 °F 29.7 in Calm     97% 0 in 0 W/m2
09:25 63.1 °F 62.2 °F 29.7 in Calm     97% 0 in 0 W/m2
09:30 63.1 °F 62.2 °F 29.7 in Calm     97% 0 in 0 W/m2
09:35 63.1 °F 62.2 °F 29.7 in Calm     97% 0 in 0 W/m2
09:40 63.1 °F 62.2 °F 29.7 in Calm     97% 0 in 0 W/m2
09:45 63.1 °F 62.2 °F 29.7 in Calm     97% 0 in 0 W/m2
09:50 63 °F 62.1 °F 29.7 in Calm     97% 0 in 0 W/m2
09:55 63 °F 62.1 °F 29.7 in Calm     97% 0 in 0 W/m2
10:00 62.8 °F 61.9 °F 29.7 in Calm     97% 0 in 0 W/m2
10:06 62.8 °F 61.9 °F 29.7 in Calm     97% 0 in 0 W/m2
10:11 62.6 °F 61.9 °F 29.7 in Calm     97% 0 in 0 W/m2
10:16 62.6 °F 61.9 °F 29.7 in Calm     97% 0 in 0 W/m2
10:21 62.4 °F 61.9 °F 29.7 in Calm     98% 0 in 0 W/m2
10:26 62.4 °F 61.9 °F 29.7 in Calm     98% 0 in 0 W/m2
10:31 62.2 °F 61.7 °F 29.7 in Calm     98% 0 in 0 W/m2
10:36 62.2 °F 61.7 °F 29.7 in Calm     98% 0 in 0 W/m2
10:41 62.2 °F 61.7 °F 29.7 in Calm     98% 0 in 0 W/m2
10:46 62.2 °F 61.7 °F 29.7 in Calm     98% 0 in 0 W/m2
13:31 61.7 °F 61.2 °F 29.8 in Calm     98% 0 in 0 W/m2
13:35 61.7 °F 61.2 °F 29.8 in Calm     98% 0 in 0 W/m2
13:41 61.5 °F 61 °F 29.8 in Calm     98% 0 in 0 W/m2
13:46 61.5 °F 61 °F 29.8 in Calm     98% 0 in 0 W/m2
13:51 61.3 °F 60.8 °F 29.8 in Calm     98% 0 in 0 W/m2
13:54 61.3 °F 60.8 °F 29.8 in Calm     98% 0 in 0 W/m2
13:58 61.3 °F 60.8 °F 29.8 in NNW 1.6 mph 4.5 mph 98% 0 in 0 W/m2
14:00 61.3 °F 60.8 °F 29.8 in NNW 1.6 mph 4.5 mph 98% 0 in 0 W/m2
14:05 61.2 °F 60.6 °F 29.8 in Calm   4.5 mph 98% 0 in 2 W/m2
14:10 61.2 °F 60.6 °F 29.8 in NNW 2.2 mph 3.8 mph 98% 0 in 4 W/m2
14:15 61.2 °F 60.6 °F 29.8 in Calm   5.4 mph 98% 0 in 7 W/m2
14:20 61.2 °F 60.6 °F 29.8 in Calm   5.4 mph 98% 0 in 11 W/m2
14:25 61 °F 60.4 °F 29.8 in Calm   1.6 mph 98% 0 in 16 W/m2
14:30 61 °F 60.4 °F 29.8 in Calm   0.7 mph 98% 0 in 22 W/m2
14:35 61 °F 60.4 °F 29.8 in Calm   0.7 mph 98% 0 in 26 W/m2
14:40 61.2 °F 60.6 °F 29.8 in Calm     98% 0 in 64 W/m2
14:45 61.3 °F 60.8 °F 29.8 in Calm     98% 0 in 49 W/m2
14:50 61.3 °F 60.8 °F 29.8 in Calm     98% 0 in 53 W/m2
14:55 61.2 °F 60.6 °F 29.8 in Calm   1.6 mph 98% 0 in 63 W/m2
15:00 61.2 °F 60.6 °F 29.8 in Calm   1.6 mph 98% 0 in 70 W/m2
15:05 61.3 °F 60.8 °F 29.8 in North 1.6 mph 2.2 mph 98% 0 in 74 W/m2
15:10 61.5 °F 61 °F 29.8 in Calm   3.1 mph 98% 0 in 89 W/m2
15:15 61.9 °F 61.3 °F 29.8 in Calm   3.1 mph 98% 0 in 109 W/m2
15:20 62.2 °F 61.7 °F 29.8 in Calm   1.6 mph 98% 0 in 114 W/m2
15:25 63 °F 62.1 °F 29.8 in Calm   1.6 mph 97% 0 in 201 W/m2
15:30 64.2 °F 63.3 °F 29.8 in Calm     97% 0 in 118 W/m2
15:35 65.1 °F 64.9 °F 29.8 in Calm     99% 0 in 77 W/m2
15:40 64.8 °F 64.6 °F 29.8 in Calm     99% 0 in 94 W/m2
15:45 64.8 °F 64.6 °F 29.8 in Calm     99% 0 in 247 W/m2
15:50 66 °F 65.8 °F 29.8 in Calm     99% 0 in 203 W/m2
15:55 67.5 °F 67.3 °F 29.8 in Calm     99% 0 in 200 W/m2
16:00 68 °F 67.6 °F 29.8 in Calm     99% 0 in 162 W/m2
16:05 68.2 °F 67.6 °F 29.8 in Calm     98% 0 in 294 W/m2
16:10 68.9 °F 67.1 °F 29.8 in Calm     94% 0 in 369 W/m2
16:17 70.5 °F 65.8 °F 29.8 in ENE 0.7 mph 4.5 mph 85% 0 in 347 W/m2
16:22 71.2 °F 65.1 °F 29.8 in ESE 2.2 mph 4.5 mph 81% 0 in 214 W/m2
16:26 70.9 °F 64 °F 29.8 in SSE 0.7 mph 4.5 mph 79% 0 in 148 W/m2
16:31 70.2 °F 63.7 °F 29.8 in Calm   3.1 mph 80% 0 in 147 W/m2
16:37 69.4 °F 63.3 °F 29.8 in Calm   3.1 mph 81% 0 in 190 W/m2
16:42 69.4 °F 64 °F 29.8 in Calm   3.1 mph 83% 0 in 158 W/m2
16:46 69.6 °F 64.2 °F 29.8 in Calm   2.2 mph 83% 0 in 170 W/m2
16:51 69.4 °F 64 °F 29.8 in SE 1.6 mph 3.1 mph 83% 0 in 172 W/m2
16:57 69.1 °F 64 °F 29.9 in SSE 1.6 mph 3.8 mph 84% 0 in 194 W/m2
17:01 69.3 °F 64.2 °F 29.9 in SSE 3.1 mph 6 mph 84% 0 in 354 W/m2
17:07 69.4 °F 64.4 °F 29.9 in SSE 1.6 mph 6 mph 84% 0 in 333 W/m2
17:11 70.2 °F 64.4 °F 29.9 in SSE 1.6 mph 6 mph 82% 0 in 513 W/m2
17:17 71.4 °F 64.9 °F 29.9 in Calm   6 mph 80% 0 in 407 W/m2
17:22 71.4 °F 63.9 °F 29.9 in Calm   3.8 mph 77% 0 in 282 W/m2
17:27 71.2 °F 64.4 °F 29.9 in SE 2.2 mph 4.5 mph 79% 0 in 394 W/m2
17:32 71.4 °F 63.9 °F 29.9 in Calm   4.5 mph 77% 0 in 406 W/m2
17:36 71.4 °F 63.9 °F 29.9 in SSE 3.1 mph 4.5 mph 77% 0 in 560 W/m2
17:42 71.4 °F 63.9 °F 29.9 in SSE 5.4 mph 7.6 mph 77% 0 in 434 W/m2
17:46 72 °F 64.4 °F 29.9 in Calm   7.6 mph 77% 0 in 551 W/m2
17:51 73 °F 64.2 °F 29.9 in SSE 2.2 mph 6.9 mph 74% 0 in 387 W/m2
17:57 73.6 °F 65.1 °F 29.9 in SSE 3.8 mph 6 mph 75% 0 in 344 W/m2
18:02 71.2 °F 63.3 °F 29.9 in South 3.1 mph 6 mph 76% 0 in 292 W/m2
18:08 70.5 °F 63.7 °F 29.9 in South 3.1 mph 6 mph 79% 0 in 295 W/m2
18:12 70.3 °F 63.9 °F 29.9 in Calm   6 mph 80% 0 in 242 W/m2
18:17 70.3 °F 64.2 °F 29.9 in South 3.8 mph 5.4 mph 81% 0 in 231 W/m2
18:22 70 °F 64.2 °F 29.9 in South 5.4 mph 7.6 mph 82% 0 in 206 W/m2
18:27 69.4 °F 64.4 °F 29.9 in SSW 4.5 mph 7.6 mph 84% 0 in 379 W/m2
18:32 69.8 °F 64.4 °F 29.9 in SSW 4.5 mph 7.6 mph 83% 0 in 355 W/m2
18:38 70 °F 64.2 °F 29.9 in South 3.8 mph 6.9 mph 82% 0 in 530 W/m2
18:42 70.9 °F 65.1 °F 29.9 in South 3.8 mph 6.9 mph 82% 0 in 285 W/m2
18:48 72.1 °F 65.3 °F 29.9 in SSW 3.8 mph 5.4 mph 79% 0 in 362 W/m2
18:50 72.1 °F 64.2 °F 29.9 in SSW 4.5 mph 7.6 mph 76% 0 in 597 W/m2
18:53 71.8 °F 63.9 °F 29.9 in South 3.1 mph 7.6 mph 76% 0 in 779 W/m2
18:58 71.6 °F 64 °F 29.9 in SSE 1.6 mph 7.6 mph 77% 0 in 516 W/m2
19:02 71.8 °F 64.6 °F 29.9 in South 2.2 mph 7.6 mph 78% 0 in 749 W/m2
19:07 72.7 °F 65.8 °F 29.9 in South 3.8 mph 7.6 mph 79% 0 in 703 W/m2
19:13 73.4 °F 65.8 °F 29.9 in South 2.2 mph 6 mph 77% 0 in 703 W/m2
19:17 73.6 °F 65.7 °F 29.9 in SSW 3.8 mph 6.9 mph 76% 0 in 733 W/m2
19:22 72.7 °F 64.8 °F 29.9 in South 6 mph 9.8 mph 76% 0 in 734 W/m2
19:27 71.8 °F 64.6 °F 29.9 in South 5.4 mph 10.7 mph 78% 0 in 717 W/m2
19:32 71.8 °F 64.6 °F 29.9 in South 6 mph 10.7 mph 78% 0 in 728 W/m2
19:37 71.8 °F 64.6 °F 29.9 in South 8.3 mph 9.8 mph 78% 0 in 734 W/m2
19:42 71.4 °F 64.9 °F 29.9 in South 6 mph 9.8 mph 80% 0 in 736 W/m2
19:48 70.7 °F 63.9 °F 29.9 in SSW 6 mph 9.8 mph 79% 0 in 740 W/m2
19:52 70.5 °F 64.4 °F 29.9 in SSW 6.9 mph 9.8 mph 81% 0 in 744 W/m2
19:57 70.9 °F 64.8 °F 29.9 in SSW 9.2 mph 12.1 mph 81% 0 in 753 W/m2
20:02 70.9 °F 64.4 °F 29.9 in SSW 5.4 mph 12.1 mph 80% 0 in 758 W/m2
20:07 71.1 °F 64.6 °F 29.9 in SSW 6.9 mph 10.7 mph 80% 0 in 766 W/m2
20:12 71.4 °F 64.9 °F 29.9 in SSW 7.6 mph 10.7 mph 80% 0 in 769 W/m2
20:17 71.4 °F 64.6 °F 29.9 in SSW 7.6 mph 10.7 mph 79% 0 in 772 W/m2
20:22 71.4 °F 64.6 °F 29.9 in SSW 6 mph 10.7 mph 79% 0 in 779 W/m2
20:28 71.6 °F 64.4 °F 29.9 in South 7.6 mph 10.7 mph 78% 0 in 780 W/m2
20:32 71.6 °F 64.8 °F 29.9 in South 7.6 mph 11.4 mph 79% 0 in 791 W/m2
20:37 72 °F 65.1 °F 29.9 in SSW 5.4 mph 11.4 mph 79% 0 in 791 W/m2
20:42 72.3 °F 65.1 °F 29.9 in SSW 6 mph 10.7 mph 78% 0 in 794 W/m2
20:47 72.3 °F 65.1 °F 29.9 in SSW 4.5 mph 10.7 mph 78% 0 in 799 W/m2
20:52 72.1 °F 64.6 °F 29.9 in SSW 5.4 mph 12.1 mph 77% 0 in 802 W/m2
20:57 72.7 °F 65.5 °F 29.9 in South 6.9 mph 12.1 mph 78% 0 in 810 W/m2
21:02 72.5 °F 64.9 °F 29.9 in SSW 6 mph 9.8 mph 77% 0 in 801 W/m2
21:07 72.3 °F 64.8 °F 29.9 in SSW 6.9 mph 9.8 mph 77% 0 in 785 W/m2
21:12 72 °F 64.8 °F 29.8 in SSW 6.9 mph 9.8 mph 78% 0 in 665 W/m2
21:17 72.5 °F 65.3 °F 29.9 in South 6 mph 9.8 mph 78% 0 in 729 W/m2
21:22 72 °F 64.8 °F 29.8 in South 6.9 mph 10.7 mph 78% 0 in 599 W/m2
21:27 72 °F 65.1 °F 29.8 in South 6.9 mph 10.7 mph 79% 0 in 758 W/m2
21:32 72.1 °F 64.9 °F 29.8 in SSW 8.3 mph 11.4 mph 78% 0 in 514 W/m2
21:37 71.8 °F 64.9 °F 29.9 in SSW 5.4 mph 11.4 mph 79% 0 in 591 W/m2
21:42 72.5 °F 64.9 °F 29.8 in SSW 4.5 mph 11.4 mph 77% 0 in 411 W/m2
21:48 73 °F 65.8 °F 29.8 in South 3.1 mph 9.2 mph 78% 0 in 791 W/m2
21:52 73.6 °F 66 °F 29.8 in South 3.8 mph 8.3 mph 77% 0 in 589 W/m2
21:57 73.6 °F 66 °F 29.8 in South 5.4 mph 9.8 mph 77% 0 in 566 W/m2
22:02 72.7 °F 64.8 °F 29.8 in South 6 mph 10.7 mph 76% 0 in 613 W/m2
22:07 73 °F 65.5 °F 29.8 in South 9.2 mph 12.1 mph 77% 0 in 519 W/m2
22:12 73.4 °F 65.8 °F 29.8 in South 6 mph 12.1 mph 77% 0 in 647 W/m2
22:17 73.2 °F 65.1 °F 29.8 in South 7.6 mph 12.1 mph 76% 0 in 587 W/m2
22:22 73 °F 65.5 °F 29.8 in South 7.6 mph 13 mph 77% 0 in 390 W/m2
22:27 72.5 °F 65.3 °F 29.8 in South 7.6 mph 13 mph 78% 0 in 346 W/m2
22:32 73 °F 66.6 °F 29.8 in SSE 2.2 mph 10.7 mph 80% 0 in 369 W/m2
22:37 73 °F 64.8 °F 29.8 in South 5.4 mph 10.7 mph 75% 0 in 252 W/m2
22:42 72.7 °F 65.5 °F 29.8 in SSE 5.4 mph 9.8 mph 78% 0 in 498 W/m2
22:47 72.7 °F 65.1 °F 29.8 in SSE 3.1 mph 11.4 mph 77% 0 in 571 W/m2
22:52 73.8 °F 66.6 °F 29.8 in South 7.6 mph 11.4 mph 78% 0 in 598 W/m2
22:57 73.9 °F 66.4 °F 29.8 in SSE 3.1 mph 10.7 mph 77% 0 in 577 W/m2
23:02 73.6 °F 65.7 °F 29.8 in SSE 6.9 mph 12.1 mph 76% 0 in 547 W/m2
23:07 73.4 °F 66.2 °F 29.8 in SSE 6.9 mph 12.1 mph 78% 0 in 555 W/m2
23:12 73.4 °F 66.2 °F 29.8 in SSW 6.9 mph 11.4 mph 78% 0 in 324 W/m2
23:17 73.4 °F 66.2 °F 29.8 in SSW 4.5 mph 11.4 mph 78% 0 in 327 W/m2
23:22 73.9 °F 66.4 °F 29.8 in South 6.9 mph 11.4 mph 77% 0 in 372 W/m2
23:27 72.9 °F 65.3 °F 29.8 in South 7.6 mph 11.4 mph 77% 0 in 326 W/m2
23:32 72.9 °F 66 °F 29.8 in SSW 7.6 mph 13.6 mph 79% 0 in 295 W/m2
23:37 72 °F 65.1 °F 29.9 in SSW 5.4 mph 13.6 mph 79% 0 in 188 W/m2
23:42 71.2 °F 65.5 °F 29.9 in SSW 7.6 mph 11.4 mph 82% 0 in 339 W/m2
23:47 71.1 °F 65.3 °F 29.9 in SW 9.2 mph 11.4 mph 82% 0 in 273 W/m2
23:52 71.1 °F 65.3 °F 29.9 in SW 7.6 mph 11.4 mph 82% 0 in 306 W/m2
23:57 71.1 °F 65.3 °F 29.9 in SSW 8.3 mph 13 mph 82% 0 in 293 W/m2
Northern Hawkes Bay. New Zealand Historic Data
Compliments of Weather Underground - 2 mb